Time;durP1;ratioP1;P1;durP2;ratioP2;P2;SDS_P1;SDS_P2;PMS_P1;PMS_P2;Temp;Humidity;BMP_temperature;BMP_pressure;BME280_temperature;BME280_humidity;BME280_pressure;Samples;Min_cycle;Max_cycle;Signal;HPM_P1;HPM_P2
2021/12/12 00:00:40;;;;;;;1.70;1.40;;;4.00;98.20;;;;;;5063471;28;20469;-76
2021/12/12 00:03:20;;;;;;;1.67;1.50;;;4.00;98.20;;;;;;5084006;28;20792;-76
2021/12/12 00:05:52;;;;;;;1.67;1.50;;;4.00;98.20;;;;;;5061070;28;20492;-76
2021/12/12 00:08:22;;;;;;;1.70;1.43;;;4.10;98.20;;;;;;5092595;28;20485;-76
2021/12/12 00:10:53;;;;;;;1.63;1.40;;;4.10;98.20;;;;;;5054479;28;20881;-76
2021/12/12 00:13:24;;;;;;;1.70;1.50;;;4.10;98.20;;;;;;5092339;28;20545;-76
2021/12/12 00:15:51;;;;;;;1.63;1.40;;;4.10;98.20;;;;;;5052790;28;20457;-76
2021/12/12 00:18:19;;;;;;;1.67;1.40;;;4.10;98.20;;;;;;5094735;28;20492;-76
2021/12/12 00:20:48;;;;;;;1.70;1.40;;;4.20;98.20;;;;;;5063829;28;20497;-76
2021/12/12 00:23:15;;;;;;;1.63;1.40;;;4.20;98.20;;;;;;5083185;27;20481;-77
2021/12/12 00:25:48;;;;;;;1.67;1.50;;;4.30;98.20;;;;;;5066355;28;21043;-76
2021/12/12 00:28:19;;;;;;;1.60;1.40;;;4.30;98.20;;;;;;5055121;28;20481;-76
2021/12/12 00:30:47;;;;;;;1.67;1.40;;;4.30;98.20;;;;;;5067693;28;20461;-76
2021/12/12 00:33:15;;;;;;;1.67;1.40;;;4.30;98.20;;;;;;5054767;28;20469;-76
2021/12/12 00:35:42;;;;;;;1.67;1.40;;;4.30;98.20;;;;;;5067071;28;20457;-76
2021/12/12 00:38:18;;;;;;;1.67;1.40;;;4.30;98.20;;;;;;5089701;27;20921;-79
2021/12/12 00:40:50;;;;;;;1.70;1.50;;;4.30;98.20;;;;;;5074392;28;20485;-78
2021/12/12 00:43:25;;;;;;;1.63;1.40;;;4.30;98.20;;;;;;5060828;28;20488;-77
2021/12/12 00:45:55;;;;;;;1.60;1.40;;;4.30;98.20;;;;;;5060437;28;20512;-78
2021/12/12 00:48:23;;;;;;;1.67;1.50;;;4.40;98.20;;;;;;5101004;28;20680;-76
2021/12/12 00:50:53;;;;;;;1.60;1.40;;;4.40;98.20;;;;;;5062916;28;20465;-77
2021/12/12 00:53:22;;;;;;;1.87;1.67;;;4.40;98.20;;;;;;5102849;28;20481;-76
2021/12/12 00:55:52;;;;;;;1.63;1.30;;;4.40;98.20;;;;;;5066683;28;20454;-76
2021/12/12 00:58:20;;;;;;;1.60;1.30;;;4.50;98.20;;;;;;5103911;28;20581;-78
2021/12/12 01:00:55;;;;;;;6.40;5.93;;;4.50;98.20;;;;;;5075521;28;20457;-78
2021/12/12 01:03:26;;;;;;;1.60;1.40;;;4.50;98.20;;;;;;5103409;28;20552;-77
2021/12/12 01:05:55;;;;;;;1.63;1.30;;;4.50;98.20;;;;;;5066459;28;20484;-76
2021/12/12 01:08:23;;;;;;;1.70;1.60;;;4.60;98.20;;;;;;5103863;28;20568;-77
2021/12/12 01:10:56;;;;;;;1.60;1.40;;;4.60;98.20;;;;;;5065855;28;20821;-77
2021/12/12 01:13:23;;;;;;;1.60;1.40;;;4.50;98.20;;;;;;5103215;28;20980;-77
2021/12/12 01:15:54;;;;;;;1.87;1.67;;;4.60;98.20;;;;;;5062767;28;20457;-79
2021/12/12 01:18:25;;;;;;;1.70;1.50;;;4.50;98.20;;;;;;5100082;28;20474;-76
2021/12/12 01:20:56;;;;;;;1.70;1.50;;;4.50;98.20;;;;;;5063390;28;20467;-79
2021/12/12 01:23:34;;;;;;;1.60;1.30;;;4.50;98.20;;;;;;5103912;28;20531;-77
2021/12/12 01:26:07;;;;;;;1.60;1.40;;;4.50;98.20;;;;;;5067185;28;20600;-78
2021/12/12 01:28:38;;;;;;;1.60;1.30;;;4.50;98.20;;;;;;5080832;28;20478;-77
2021/12/12 01:31:11;;;;;;;1.70;1.50;;;4.50;98.20;;;;;;5047174;28;20470;-78
2021/12/12 01:33:38;;;;;;;1.63;1.40;;;4.50;98.20;;;;;;5076737;28;21160;-77
2021/12/12 01:36:08;;;;;;;1.63;1.40;;;4.40;98.20;;;;;;5050095;28;20461;-78
2021/12/12 01:38:54;;;;;;;1.70;1.40;;;4.50;98.20;;;;;;5082912;28;20910;-77
2021/12/12 01:41:26;;;;;;;1.60;1.40;;;4.50;98.20;;;;;;5051767;28;20550;-77
2021/12/12 01:43:58;;;;;;;1.60;1.40;;;4.50;98.20;;;;;;5076778;28;20518;-79
2021/12/12 01:46:30;;;;;;;1.60;1.30;;;4.50;98.20;;;;;;5055869;28;20559;-79
2021/12/12 01:49:02;;;;;;;1.67;1.50;;;4.50;98.20;;;;;;5077619;28;20791;-78
2021/12/12 01:51:31;;;;;;;1.60;1.40;;;4.50;98.20;;;;;;5056462;28;20563;-78
2021/12/12 01:54:06;;;;;;;1.60;1.40;;;4.50;98.20;;;;;;5077787;28;20466;-78
2021/12/12 01:56:41;;;;;;;1.60;1.33;;;4.60;98.20;;;;;;5056325;28;20487;-80
2021/12/12 01:59:10;;;;;;;1.60;1.40;;;4.70;98.20;;;;;;5077767;28;20461;-82
2021/12/12 02:01:40;;;;;;;1.70;1.40;;;4.70;98.20;;;;;;5062939;28;20526;-79
2021/12/12 02:04:10;;;;;;;1.70;1.50;;;4.70;98.20;;;;;;5076019;28;20540;-79
2021/12/12 02:06:38;;;;;;;1.60;1.30;;;4.70;98.20;;;;;;5063352;28;20480;-79
2021/12/12 02:09:07;;;;;;;1.60;1.40;;;4.70;98.20;;;;;;5080128;28;20553;-78
2021/12/12 02:11:37;;;;;;;1.60;1.37;;;4.80;98.20;;;;;;5061589;28;20571;-78
2021/12/12 02:14:12;;;;;;;1.60;1.30;;;4.80;98.20;;;;;;5079435;28;20502;-79
2021/12/12 02:16:41;;;;;;;1.60;1.40;;;4.80;98.20;;;;;;5063620;28;20479;-83
2021/12/12 02:19:09;;;;;;;1.60;1.30;;;4.80;98.20;;;;;;5084078;28;20536;-78
2021/12/12 02:21:55;;;;;;;1.60;1.30;;;4.90;98.20;;;;;;5061394;28;20517;-78
2021/12/12 02:35:44;;;;;;;1.60;1.40;;;5.00;98.20;;;;;;5060092;28;20477;-79
2021/12/12 02:38:14;;;;;;;1.63;1.40;;;5.00;98.20;;;;;;5080518;28;20483;-81
2021/12/12 02:40:45;;;;;;;1.60;1.40;;;5.00;98.20;;;;;;5060054;28;20450;-79
2021/12/12 02:43:15;;;;;;;1.60;1.40;;;5.00;98.20;;;;;;5045305;28;20490;-80
2021/12/12 02:45:45;;;;;;;1.60;1.40;;;5.10;98.20;;;;;;5058426;28;20494;-78
2021/12/12 02:48:18;;;;;;;1.60;1.30;;;5.10;98.20;;;;;;5078903;28;21008;-78
2021/12/12 02:50:47;;;;;;;1.60;1.30;;;5.10;98.20;;;;;;5050672;28;20461;-76
2021/12/12 02:53:18;;;;;;;1.67;1.43;;;5.10;98.20;;;;;;5037332;28;20501;-77
2021/12/12 02:55:51;;;;;;;1.60;1.30;;;5.10;98.20;;;;;;5046746;28;20493;-76
2021/12/12 02:58:21;;;;;;;1.70;1.50;;;5.10;98.20;;;;;;5037860;28;20477;-76
2021/12/12 03:00:56;;;;;;;1.60;1.30;;;5.10;98.20;;;;;;5049142;28;20488;-76
2021/12/12 03:03:27;;;;;;;1.60;1.30;;;5.10;98.20;;;;;;5071358;28;20492;-77
2021/12/12 03:05:55;;;;;;;1.60;1.30;;;5.10;98.20;;;;;;5039669;28;20496;-76
2021/12/12 03:08:22;;;;;;;1.60;1.30;;;5.10;98.20;;;;;;5078138;28;20577;-76
2021/12/12 03:10:55;;;;;;;1.60;1.30;;;5.10;98.20;;;;;;5039887;28;20458;-76
2021/12/12 03:13:23;;;;;;;1.70;1.50;;;5.10;98.20;;;;;;5054605;28;20470;-76
2021/12/12 03:15:50;;;;;;;1.67;1.40;;;5.10;98.20;;;;;;5036213;28;20463;-77
2021/12/12 03:18:20;;;;;;;1.67;1.40;;;5.10;98.20;;;;;;5080752;28;20481;-76
2021/12/12 03:20:50;;;;;;;2.33;2.13;;;5.10;98.20;;;;;;5049239;28;20790;-76
2021/12/12 03:23:23;;;;;;;1.60;1.30;;;5.10;98.20;;;;;;5037250;28;20470;-76
2021/12/12 03:25:55;;;;;;;1.70;1.50;;;5.10;98.20;;;;;;5039100;28;20589;-76
2021/12/12 03:28:24;;;;;;;1.60;1.30;;;5.10;98.20;;;;;;5079201;28;21002;-76
2021/12/12 03:30:55;;;;;;;1.60;1.30;;;5.20;98.20;;;;;;5039313;28;20462;-77
2021/12/12 03:33:25;;;;;;;1.63;1.30;;;5.10;98.20;;;;;;5078216;28;20459;-77
2021/12/12 03:35:54;;;;;;;1.70;1.50;;;5.20;98.20;;;;;;5039020;28;20459;-76
2021/12/12 03:38:24;;;;;;;1.60;1.30;;;5.20;98.20;;;;;;5078409;28;20553;-76
2021/12/12 03:40:53;;;;;;;1.60;1.30;;;5.20;98.20;;;;;;5036862;28;20508;-77
2021/12/12 03:43:21;;;;;;;1.60;1.30;;;5.20;98.20;;;;;;5079077;28;20462;-76
2021/12/12 03:45:49;;;;;;;1.60;1.30;;;5.20;98.20;;;;;;5044235;28;20462;-77
2021/12/12 03:48:20;;;;;;;1.60;1.40;;;5.20;98.20;;;;;;5079546;28;20933;-77
2021/12/12 03:50:50;;;;;;;1.70;1.50;;;5.20;98.20;;;;;;5047507;28;20835;-76
2021/12/12 03:53:19;;;;;;;1.70;1.50;;;5.20;98.20;;;;;;5035598;28;20569;-77
2021/12/12 03:55:50;;;;;;;1.60;1.30;;;5.20;98.20;;;;;;5047664;28;20819;-76
2021/12/12 03:58:18;;;;;;;1.60;1.30;;;5.20;98.20;;;;;;5036061;28;21186;-76
2021/12/12 04:00:51;;;;;;;1.60;1.30;;;5.20;98.20;;;;;;5048257;28;20516;-74
2021/12/12 04:03:19;;;;;;;1.67;1.40;;;5.20;98.20;;;;;;5053353;28;20830;-74
2021/12/12 04:05:48;;;;;;;1.60;1.37;;;5.20;98.20;;;;;;5045321;28;20458;-73
2021/12/12 04:08:16;;;;;;;1.60;1.30;;;5.20;98.20;;;;;;5034974;28;20486;-73
2021/12/12 04:10:44;;;;;;;1.60;1.30;;;5.20;98.20;;;;;;5047617;28;20484;-73
2021/12/12 04:13:11;;;;;;;1.60;1.30;;;5.20;98.20;;;;;;5067622;28;20532;-73
2021/12/12 04:15:40;;;;;;;1.60;1.30;;;5.10;98.20;;;;;;5047122;28;21006;-74
2021/12/12 04:18:07;;;;;;;1.70;1.40;;;5.10;98.20;;;;;;5069217;28;20631;-74
2021/12/12 04:20:38;;;;;;;1.60;1.30;;;5.10;98.20;;;;;;5047596;28;20459;-74
2021/12/12 04:23:15;;;;;;;1.63;1.40;;;5.10;98.20;;;;;;5066299;28;21057;-74
2021/12/12 04:25:43;;;;;;;1.60;1.40;;;5.10;98.20;;;;;;5043085;28;20474;-74
2021/12/12 04:28:11;;;;;;;1.97;1.77;;;5.10;98.20;;;;;;5048508;28;21060;-74
2021/12/12 04:30:38;;;;;;;1.60;1.30;;;5.10;98.20;;;;;;5043387;28;20473;-74
2021/12/12 04:33:06;;;;;;;1.60;1.30;;;5.10;98.20;;;;;;5070150;28;20511;-74
2021/12/12 04:35:35;;;;;;;1.70;1.60;;;5.10;98.20;;;;;;5044954;28;20733;-74
2021/12/12 04:38:03;;;;;;;1.63;1.30;;;5.10;98.20;;;;;;5068214;28;20484;-74
2021/12/12 04:40:33;;;;;;;1.60;1.30;;;5.10;98.20;;;;;;5047095;28;20469;-74
2021/12/12 04:43:02;;;;;;;1.60;1.30;;;5.10;98.20;;;;;;5046474;28;20496;-74
2021/12/12 04:45:49;;;;;;;1.63;1.40;;;5.10;98.20;;;;;;5046352;28;20684;-74
2021/12/12 04:51:14;;;;;;;1.60;1.30;;;5.20;98.20;;;;;;5019575;28;20486;-74
2021/12/12 04:53:47;;;;;;;1.60;1.30;;;5.20;98.20;;;;;;5048239;28;20982;-74
2021/12/12 04:56:20;;;;;;;1.60;1.30;;;5.20;98.20;;;;;;5024842;28;20876;-74
2021/12/12 04:58:58;;;;;;;1.67;1.40;;;5.20;98.20;;;;;;5026474;28;20464;-75
2021/12/12 05:01:31;;;;;;;1.60;1.30;;;5.20;98.20;;;;;;5024529;28;20875;-76
2021/12/12 05:04:06;;;;;;;1.60;1.30;;;5.10;98.20;;;;;;5026138;28;20463;-75
2021/12/12 05:06:39;;;;;;;1.60;1.40;;;5.10;98.20;;;;;;5027191;28;20482;-75
2021/12/12 05:09:09;;;;;;;1.60;1.40;;;5.10;98.20;;;;;;5023535;28;20948;-75
2021/12/12 05:11:43;;;;;;;1.60;1.30;;;5.10;98.20;;;;;;5026668;28;20459;-75
2021/12/12 05:14:21;;;;;;;1.60;1.33;;;5.10;98.20;;;;;;5026301;28;20854;-74
2021/12/12 05:16:53;;;;;;;1.60;1.30;;;5.10;98.20;;;;;;5027185;28;20940;-75
2021/12/12 05:19:28;;;;;;;1.60;1.30;;;5.10;98.20;;;;;;5027499;28;20602;-75
2021/12/12 05:22:01;;;;;;;1.60;1.40;;;5.20;98.20;;;;;;5024787;28;20544;-75
2021/12/12 05:24:31;;;;;;;2.37;2.17;;;5.20;98.20;;;;;;5021365;28;20983;-75
2021/12/12 05:27:06;;;;;;;1.63;1.40;;;5.20;98.20;;;;;;5026251;28;20522;-75
2021/12/12 05:29:37;;;;;;;1.60;1.30;;;5.20;98.20;;;;;;5026378;28;20458;-75
2021/12/12 05:32:08;;;;;;;1.60;1.40;;;5.30;98.20;;;;;;5025219;28;20887;-75
2021/12/12 05:34:39;;;;;;;1.60;1.30;;;5.30;98.20;;;;;;5026433;28;20467;-75
2021/12/12 05:37:10;;;;;;;1.60;1.40;;;5.20;98.20;;;;;;5026723;28;21046;-75
2021/12/12 05:39:39;;;;;;;1.60;1.40;;;5.20;98.20;;;;;;5027100;28;20578;-75
2021/12/12 05:42:08;;;;;;;1.60;1.30;;;5.20;98.20;;;;;;5025079;28;20565;-75
2021/12/12 05:44:37;;;;;;;1.60;1.30;;;5.20;98.20;;;;;;5026077;28;20558;-75
2021/12/12 05:47:08;;;;;;;1.60;1.33;;;5.10;98.20;;;;;;5026602;28;20491;-75
2021/12/12 05:49:39;;;;;;;1.60;1.30;;;5.10;98.20;;;;;;5027386;28;20512;-75
2021/12/12 05:52:09;;;;;;;1.97;1.77;;;5.10;98.20;;;;;;5024290;28;20550;-75
2021/12/12 05:54:37;;;;;;;1.70;1.50;;;5.10;98.20;;;;;;5022962;28;20456;-75
2021/12/12 05:57:05;;;;;;;1.60;1.37;;;5.10;98.20;;;;;;5026162;28;21014;-75
2021/12/12 05:59:32;;;;;;;1.60;1.40;;;5.10;98.20;;;;;;5026978;28;20466;-75
2021/12/12 06:02:03;;;;;;;1.60;1.30;;;5.10;98.20;;;;;;5025525;28;20471;-75
2021/12/12 06:04:32;;;;;;;1.60;1.30;;;5.10;98.20;;;;;;5026049;28;20537;-75
2021/12/12 06:07:03;;;;;;;4.70;3.20;;;5.10;98.20;;;;;;5025650;28;20518;-75
2021/12/12 06:09:32;;;;;;;1.63;1.30;;;5.10;98.20;;;;;;5026633;28;20470;-75
2021/12/12 06:12:01;;;;;;;1.60;1.40;;;5.10;98.20;;;;;;5024501;28;20455;-75
2021/12/12 06:14:31;;;;;;;1.60;1.30;;;5.10;98.20;;;;;;5025896;28;20470;-75
2021/12/12 06:17:01;;;;;;;1.60;1.33;;;5.10;98.20;;;;;;5022943;28;20471;-75
2021/12/12 06:19:32;;;;;;;1.70;1.50;;;5.10;98.20;;;;;;5021811;28;20529;-76
2021/12/12 06:22:03;;;;;;;1.60;1.30;;;5.10;98.20;;;;;;5025726;28;20482;-76
2021/12/12 06:24:34;;;;;;;2.17;1.97;;;5.10;98.20;;;;;;5025994;28;20554;-76
2021/12/12 06:27:07;;;;;;;1.60;1.40;;;5.10;98.20;;;;;;5025638;28;20495;-76
2021/12/12 06:29:35;;;;;;;1.60;1.40;;;5.10;98.20;;;;;;5026535;28;20836;-76
2021/12/12 06:32:05;;;;;;;1.60;1.30;;;5.10;98.20;;;;;;5024343;28;20975;-75
2021/12/12 06:34:36;;;;;;;1.60;1.40;;;5.10;98.20;;;;;;5025276;28;20569;-76
2021/12/12 06:37:06;;;;;;;1.63;1.40;;;5.10;98.20;;;;;;5026049;28;20483;-76
2021/12/12 06:39:34;;;;;;;1.60;1.30;;;5.10;98.20;;;;;;5024223;28;20552;-76
2021/12/12 06:42:02;;;;;;;1.60;1.40;;;5.20;98.20;;;;;;5019372;28;20485;-76
2021/12/12 06:44:30;;;;;;;1.60;1.30;;;5.20;98.20;;;;;;5021141;28;20696;-75
2021/12/12 06:46:59;;;;;;;1.97;1.77;;;5.20;98.20;;;;;;5028053;28;20527;-76
2021/12/12 06:49:27;;;;;;;1.67;1.40;;;5.20;98.20;;;;;;5028368;28;20467;-76
2021/12/12 06:51:57;;;;;;;1.60;1.30;;;5.20;98.20;;;;;;5028700;28;20908;-76
2021/12/12 06:54:27;;;;;;;1.60;1.30;;;5.20;98.20;;;;;;5029226;28;20459;-75
2021/12/12 06:56:59;;;;;;;1.60;1.40;;;5.20;98.20;;;;;;5028574;28;20483;-76
2021/12/12 06:59:29;;;;;;;1.60;1.30;;;5.20;98.20;;;;;;5029798;28;20838;-75
2021/12/12 07:01:58;;;;;;;1.67;1.30;;;5.20;98.20;;;;;;5028016;28;20466;-75
2021/12/12 07:04:27;;;;;;;1.67;1.37;;;5.20;98.20;;;;;;5028317;28;20459;-75
2021/12/12 07:06:58;;;;;;;1.60;1.30;;;5.20;98.20;;;;;;5029161;28;20518;-75
2021/12/12 07:09:30;;;;;;;1.67;1.40;;;5.30;98.20;;;;;;5029506;28;20885;-75
2021/12/12 07:12:02;;;;;;;4.60;4.30;;;5.30;98.20;;;;;;5028333;28;20470;-75
2021/12/12 07:14:30;;;;;;;1.60;1.30;;;5.30;98.20;;;;;;5026058;28;20550;-75
2021/12/12 07:16:57;;;;;;;1.60;1.30;;;5.30;98.20;;;;;;5029077;28;20540;-75
2021/12/12 07:19:24;;;;;;;1.70;1.40;;;5.30;98.20;;;;;;5029080;28;20474;-75
2021/12/12 07:21:52;;;;;;;1.60;1.40;;;5.30;98.20;;;;;;5031656;28;20466;-74
2021/12/12 07:24:22;;;;;;;1.63;1.40;;;5.40;98.20;;;;;;5049419;28;20467;-73
2021/12/12 07:26:52;;;;;;;1.60;1.30;;;5.40;98.20;;;;;;5053616;28;20983;-74
2021/12/12 07:29:19;;;;;;;1.60;1.30;;;5.40;98.20;;;;;;5061753;28;20466;-73
2021/12/12 07:31:48;;;;;;;1.70;1.50;;;5.40;98.20;;;;;;5052279;28;20491;-74
2021/12/12 07:34:17;;;;;;;2.17;1.97;;;5.40;98.20;;;;;;5063386;28;20466;-73
2021/12/12 07:36:47;;;;;;;1.60;1.30;;;5.40;98.20;;;;;;5050982;28;20488;-74
2021/12/12 07:39:17;;;;;;;2.13;1.93;;;5.50;98.20;;;;;;5063510;28;20516;-74
2021/12/12 07:41:48;;;;;;;1.60;1.30;;;5.50;98.20;;;;;;5046692;28;20976;-74
2021/12/12 07:44:24;;;;;;;1.60;1.30;;;5.50;98.20;;;;;;5060755;28;21033;-74
2021/12/12 07:46:52;;;;;;;1.63;1.30;;;5.50;98.20;;;;;;5055031;28;20483;-74
2021/12/12 07:49:20;;;;;;;1.60;1.30;;;5.50;98.20;;;;;;5061040;28;20470;-74
2021/12/12 07:51:50;;;;;;;1.60;1.30;;;5.50;98.20;;;;;;5051318;28;20560;-74
2021/12/12 07:54:18;;;;;;;1.60;1.30;;;5.50;98.20;;;;;;5061755;28;20473;-74
2021/12/12 07:56:47;;;;;;;1.67;1.40;;;5.50;98.20;;;;;;5052467;28;20483;-73
2021/12/12 07:59:16;;;;;;;1.70;1.40;;;5.50;98.20;;;;;;5065822;28;20508;-74
2021/12/12 08:01:48;;;;;;;1.63;1.40;;;5.50;98.20;;;;;;5049906;28;20473;-74
2021/12/12 08:04:17;;;;;;;1.60;1.30;;;5.50;98.20;;;;;;5062859;28;20493;-73
2021/12/12 08:06:44;;;;;;;1.60;1.30;;;5.60;98.20;;;;;;5051468;28;20507;-74
2021/12/12 08:09:13;;;;;;;1.60;1.30;;;5.60;98.20;;;;;;5061818;28;21337;-74
2021/12/12 08:11:41;;;;;;;2.07;1.87;;;5.60;98.20;;;;;;5050082;28;20484;-74
2021/12/12 08:14:13;;;;;;;1.60;1.40;;;5.60;98.20;;;;;;5062631;28;20557;-73
2021/12/12 08:16:40;;;;;;;1.60;1.20;;;5.60;98.20;;;;;;5042829;28;20485;-73
2021/12/12 08:19:09;;;;;;;1.60;1.30;;;5.70;98.20;;;;;;5053163;28;20518;-73
2021/12/12 08:21:38;;;;;;;1.60;1.30;;;5.70;98.20;;;;;;5047034;28;20560;-73
2021/12/12 08:24:09;;;;;;;1.60;1.30;;;5.70;98.20;;;;;;5058603;28;20516;-73
2021/12/12 08:26:38;;;;;;;1.70;1.50;;;5.70;98.20;;;;;;5048095;28;20484;-74
2021/12/12 08:29:06;;;;;;;1.60;1.30;;;5.70;98.20;;;;;;5061212;28;20821;-73
2021/12/12 08:31:33;;;;;;;1.60;1.40;;;5.80;98.20;;;;;;5046174;28;20491;-74
2021/12/12 08:34:01;;;;;;;1.60;1.30;;;5.80;98.20;;;;;;5050846;28;20465;-73
2021/12/12 08:36:30;;;;;;;1.60;1.30;;;5.80;98.20;;;;;;5045543;28;20523;-74
2021/12/12 08:38:57;;;;;;;6.23;3.63;;;5.80;98.20;;;;;;5067965;28;20854;-73
2021/12/12 08:41:25;;;;;;;1.60;1.30;;;5.80;98.20;;;;;;5048775;28;20507;-74
2021/12/12 08:43:52;;;;;;;1.60;1.20;;;5.80;98.20;;;;;;5067945;28;21012;-74
2021/12/12 08:46:20;;;;;;;1.60;1.30;;;5.90;98.20;;;;;;5046302;28;20490;-74
2021/12/12 08:48:51;;;;;;;1.60;1.30;;;5.90;98.20;;;;;;5071432;28;20639;-74
2021/12/12 08:51:22;;;;;;;1.60;1.30;;;6.00;98.20;;;;;;5039501;28;20968;-74
2021/12/12 08:53:52;;;;;;;1.70;1.50;;;6.00;98.20;;;;;;5068533;28;20462;-73
2021/12/12 08:56:31;;;;;;;1.60;1.30;;;6.00;98.20;;;;;;5036711;28;20807;-74
2021/12/12 08:59:00;;;;;;;1.60;1.30;;;6.00;98.20;;;;;;5054297;28;20465;-74
2021/12/12 09:01:27;;;;;;;1.70;1.40;;;6.10;98.20;;;;;;5045022;28;20525;-74
2021/12/12 09:03:58;;;;;;;1.60;1.30;;;6.10;98.20;;;;;;5070779;28;20461;-74
2021/12/12 09:06:28;;;;;;;1.60;1.30;;;6.10;98.20;;;;;;5040918;28;20483;-74
2021/12/12 09:09:01;;;;;;;1.60;1.30;;;6.20;98.20;;;;;;5069393;28;20491;-73
2021/12/12 09:11:32;;;;;;;1.60;1.30;;;6.20;98.20;;;;;;5045772;28;21008;-74
2021/12/12 09:14:03;;;;;;;1.70;1.50;;;6.20;98.20;;;;;;5061051;28;20473;-73
2021/12/12 09:16:35;;;;;;;1.63;1.30;;;6.20;98.20;;;;;;5039587;28;20777;-74
2021/12/12 09:19:08;;;;;;;1.60;1.30;;;6.20;98.20;;;;;;5059739;28;20766;-74
2021/12/12 09:21:49;;;;;;;1.60;1.30;;;6.20;98.20;;;;;;5041567;28;20591;-74
2021/12/12 09:24:43;;;;;;;1.60;1.30;;;6.20;98.20;;;;;;5056959;28;20507;-74
2021/12/12 09:27:11;;;;;;;1.60;1.20;;;6.30;98.20;;;;;;5051510;28;20552;-74
2021/12/12 09:29:44;;;;;;;1.60;1.27;;;6.30;98.20;;;;;;5050657;28;20495;-74
2021/12/12 09:32:14;;;;;;;1.70;1.40;;;6.30;98.20;;;;;;5052581;28;20485;-74
2021/12/12 09:34:50;;;;;;;1.60;1.30;;;6.30;98.20;;;;;;5050727;28;20557;-74
2021/12/12 09:37:23;;;;;;;1.63;1.30;;;6.30;98.20;;;;;;5054972;28;20515;-74
2021/12/12 09:39:59;;;;;;;1.60;1.23;;;6.40;98.20;;;;;;5046690;28;20459;-73
2021/12/12 09:42:54;;;;;;;1.60;1.23;;;6.40;98.20;;;;;;5054412;28;20480;-73
2021/12/12 09:45:49;;;;;;;1.60;1.30;;;6.50;98.20;;;;;;5040961;28;20474;-75
2021/12/12 09:52:02;;;;;;;1.60;1.30;;;6.60;98.20;;;;;;5018974;28;21085;-74
2021/12/12 09:54:39;;;;;;;1.63;1.30;;;6.70;98.20;;;;;;5051421;28;20478;-73
2021/12/12 09:57:14;;;;;;;1.60;1.30;;;6.70;98.20;;;;;;5048564;28;21033;-74
2021/12/12 09:59:56;;;;;;;1.60;1.30;;;6.70;98.20;;;;;;5050840;28;20458;-75
2021/12/12 10:02:29;;;;;;;1.60;1.30;;;6.80;98.20;;;;;;5052798;28;20479;-76
2021/12/12 10:05:18;;;;;;;1.70;1.30;;;6.80;98.20;;;;;;5047367;28;20825;-75
2021/12/12 10:07:54;;;;;;;1.60;1.30;;;6.80;98.20;;;;;;5060767;28;20522;-76
2021/12/12 10:10:27;;;;;;;1.60;1.30;;;6.80;98.20;;;;;;5039176;28;20465;-75
2021/12/12 10:13:04;;;;;;;1.63;1.20;;;6.90;98.20;;;;;;5032673;28;20895;-75
2021/12/12 10:15:39;;;;;;;1.60;1.30;;;6.90;98.20;;;;;;5040048;28;20823;-76
2021/12/12 10:18:12;;;;;;;1.67;1.30;;;6.80;98.20;;;;;;5041753;28;20485;-76
2021/12/12 10:20:45;;;;;;;1.60;1.27;;;6.70;98.20;;;;;;5043268;28;20872;-76
2021/12/12 10:23:17;;;;;;;1.60;1.30;;;6.70;98.20;;;;;;5064283;28;21318;-75
2021/12/12 10:25:53;;;;;;;1.63;1.30;;;6.60;98.20;;;;;;5043358;28;20919;-75
2021/12/12 10:28:25;;;;;;;1.67;1.40;;;6.70;98.20;;;;;;5031937;28;20846;-76
2021/12/12 10:30:57;;;;;;;1.60;1.20;;;6.70;98.20;;;;;;5034999;28;20960;-77
2021/12/12 10:33:33;;;;;;;1.60;1.30;;;6.70;98.20;;;;;;5072984;28;20552;-76
2021/12/12 10:36:06;;;;;;;1.60;1.20;;;6.70;98.20;;;;;;5035300;28;20457;-75
2021/12/12 10:38:42;;;;;;;1.60;1.30;;;6.70;98.20;;;;;;5070667;28;20571;-76
2021/12/12 10:41:15;;;;;;;1.60;1.27;;;6.70;98.20;;;;;;5038464;28;20473;-76
2021/12/12 10:43:50;;;;;;;1.67;1.40;;;6.70;98.20;;;;;;5068231;28;20552;-76
2021/12/12 10:46:29;;;;;;;1.60;1.20;;;6.70;98.20;;;;;;5040825;28;20540;-76
2021/12/12 10:49:05;;;;;;;1.60;1.30;;;6.80;98.20;;;;;;5063303;28;20897;-76
2021/12/12 10:51:39;;;;;;;1.60;1.20;;;6.80;98.20;;;;;;5042974;28;20476;-76
2021/12/12 10:54:13;;;;;;;1.60;1.20;;;6.90;98.20;;;;;;5058123;28;20641;-76
2021/12/12 10:56:43;;;;;;;1.60;1.20;;;6.90;98.20;;;;;;5047756;28;20879;-76
2021/12/12 10:59:22;;;;;;;1.60;1.27;;;6.90;98.20;;;;;;5068146;28;20457;-75
2021/12/12 11:01:52;;;;;;;1.63;1.27;;;6.90;98.20;;;;;;5052579;28;20484;-76
2021/12/12 11:04:22;;;;;;;1.63;1.30;;;6.90;98.20;;;;;;5059691;28;20475;-75
2021/12/12 11:06:52;;;;;;;1.60;1.30;;;7.00;98.20;;;;;;5051164;28;20753;-76
2021/12/12 11:09:29;;;;;;;1.60;1.23;;;7.00;98.20;;;;;;5056164;28;20926;-76
2021/12/12 11:12:06;;;;;;;1.70;1.40;;;7.00;98.20;;;;;;5049693;28;20822;-76
2021/12/12 11:14:39;;;;;;;1.60;1.20;;;7.00;98.20;;;;;;5053308;28;20958;-76
2021/12/12 11:17:14;;;;;;;1.60;1.20;;;7.00;98.20;;;;;;5052310;28;20568;-76
2021/12/12 11:19:47;;;;;;;1.60;1.30;;;7.00;98.20;;;;;;5049972;28;20462;-76
2021/12/12 11:22:18;;;;;;;1.60;1.30;;;6.90;98.20;;;;;;5054448;28;20980;-76
2021/12/12 11:24:50;;;;;;;1.60;1.23;;;6.90;98.20;;;;;;5050101;28;20624;-76
2021/12/12 11:27:24;;;;;;;1.60;1.30;;;6.90;98.20;;;;;;5058090;28;20515;-76
2021/12/12 11:30:10;;;;;;;1.60;1.30;;;6.90;98.20;;;;;;5054559;28;20493;-75
2021/12/12 11:32:39;;;;;;;1.70;1.30;;;7.10;98.20;;;;;;5062083;28;20491;-74
2021/12/12 11:35:13;;;;;;;1.60;1.23;;;7.10;98.20;;;;;;5043048;28;20561;-75
2021/12/12 11:37:44;;;;;;;1.63;1.20;;;7.10;98.20;;;;;;5061915;28;20517;-75
2021/12/12 11:40:19;;;;;;;1.60;1.30;;;7.10;98.20;;;;;;5044471;28;20828;-74
2021/12/12 11:42:50;;;;;;;1.60;1.27;;;7.10;98.20;;;;;;5061158;28;20768;-74
2021/12/12 11:45:25;;;;;;;1.60;1.23;;;7.20;98.20;;;;;;5042919;28;20466;-74
2021/12/12 11:48:03;;;;;;;1.60;1.30;;;7.20;98.20;;;;;;5065005;28;20501;-74
2021/12/12 11:50:36;;;;;;;1.60;1.20;;;7.20;98.20;;;;;;5043629;28;20466;-74
2021/12/12 11:53:06;;;;;;;1.60;1.20;;;7.20;98.20;;;;;;5063584;28;20996;-74
2021/12/12 11:55:38;;;;;;;1.60;1.20;;;7.30;98.20;;;;;;5042209;28;20463;-74
2021/12/12 11:58:15;;;;;;;1.60;1.20;;;7.30;98.20;;;;;;5063736;28;20727;-74
2021/12/12 12:00:49;;;;;;;1.60;1.40;;;7.30;98.20;;;;;;5040954;28;20461;-74
2021/12/12 12:03:28;;;;;;;1.60;1.20;;;7.30;98.20;;;;;;5030719;28;20580;-74
2021/12/12 12:06:10;;;;;;;1.60;1.27;;;7.40;98.20;;;;;;5032345;28;20469;-74
2021/12/12 12:08:46;;;;;;;1.60;1.20;;;7.40;98.20;;;;;;5064649;28;20494;-75
2021/12/12 12:11:27;;;;;;;1.60;1.30;;;7.50;98.20;;;;;;5032299;28;20479;-75
2021/12/12 12:13:57;;;;;;;1.60;1.20;;;7.50;98.20;;;;;;5055558;28;20485;-74
2021/12/12 12:16:42;;;;;;;1.60;1.30;;;7.50;98.20;;;;;;5028949;28;20473;-75
2021/12/12 12:19:16;;;;;;;1.67;1.30;;;7.60;98.20;;;;;;5045174;28;20616;-74
2021/12/12 12:22:10;;;;;;;1.60;1.30;;;7.60;98.20;;;;;;5042111;28;20485;-74
2021/12/12 12:24:56;;;;;;;1.60;1.10;;;7.60;98.20;;;;;;5050483;28;20494;-74
2021/12/12 12:27:30;;;;;;;1.67;1.27;;;7.60;98.20;;;;;;5058522;28;20988;-74
2021/12/12 12:30:39;;;;;;;1.60;1.30;;;7.60;98.20;;;;;;5048574;28;20525;-74
2021/12/12 12:33:39;;;;;;;1.63;1.20;;;7.70;98.20;;;;;;5061867;28;20572;-74
2021/12/12 12:36:48;;;;;;;1.60;1.20;;;7.70;98.20;;;;;;5033182;28;20911;-74
2021/12/12 12:39:55;;;;;;;1.60;1.20;;;7.70;98.20;;;;;;5058277;28;20820;-74
2021/12/12 12:43:11;;;;;;;1.67;1.30;;;7.70;98.20;;;;;;5033211;28;20481;-74
2021/12/12 12:46:26;;;;;;;1.63;1.30;;;7.80;98.20;;;;;;5038132;28;20736;-74
2021/12/12 12:49:45;;;;;;;1.60;1.20;;;7.80;98.20;;;;;;5010112;28;20566;-74
2021/12/12 12:52:51;;;;;;;1.60;1.20;;;7.80;98.20;;;;;;5052760;28;20622;-74
2021/12/12 12:55:55;;;;;;;1.60;1.20;;;7.80;98.20;;;;;;5041867;28;20657;-75
2021/12/12 12:58:36;;;;;;;1.63;1.30;;;7.80;98.20;;;;;;5014492;28;20567;-75
2021/12/12 13:01:07;;;;;;;1.60;1.20;;;7.80;98.20;;;;;;5032412;28;20989;-75
2021/12/12 13:03:46;;;;;;;1.60;1.20;;;7.80;98.20;;;;;;5068159;28;20462;-75
2021/12/12 13:06:46;;;;;;;1.60;1.20;;;7.90;98.20;;;;;;5040300;28;20525;-75
2021/12/12 13:09:28;;;;;;;1.60;1.30;;;7.90;98.20;;;;;;5059114;28;20493;-75
2021/12/12 13:12:13;;;;;;;1.63;1.30;;;7.90;98.20;;;;;;5046308;28;20850;-74
2021/12/12 13:14:51;;;;;;;1.60;1.20;;;7.90;98.20;;;;;;5049222;28;20520;-75
2021/12/12 13:17:27;;;;;;;1.60;1.20;;;7.90;98.20;;;;;;5053982;28;20567;-75
2021/12/12 13:20:11;;;;;;;1.60;1.20;;;7.90;98.20;;;;;;5047123;28;20793;-74
2021/12/12 13:22:47;;;;;;;1.60;1.20;;;7.90;98.20;;;;;;5058208;28;20476;-74
2021/12/12 13:25:25;;;;;;;1.63;1.30;;;7.90;98.20;;;;;;5040822;28;20476;-74
2021/12/12 13:28:05;;;;;;;1.60;1.20;;;7.90;98.20;;;;;;5061290;28;20562;-74
2021/12/12 13:30:43;;;;;;;1.60;1.20;;;7.90;98.20;;;;;;5040770;28;21047;-75
2021/12/12 13:33:28;;;;;;;1.60;1.20;;;7.90;98.20;;;;;;5059861;28;20510;-75
2021/12/12 13:36:20;;;;;;;1.60;1.20;;;7.90;98.20;;;;;;5030834;28;20458;-74
2021/12/12 13:39:04;;;;;;;1.67;1.30;;;7.90;98.20;;;;;;5064907;28;20969;-74
2021/12/12 13:41:44;;;;;;;1.60;1.30;;;7.90;98.20;;;;;;5039709;28;20946;-74
2021/12/12 13:44:31;;;;;;;1.60;1.20;;;7.90;98.20;;;;;;5056282;28;20499;-75
2021/12/12 13:47:13;;;;;;;1.60;1.20;;;7.90;98.20;;;;;;5048287;28;20533;-75